sensor_id;sensor_type;location;lat;lon;timestamp;P1;durP1;ratioP1;P2;durP2;ratioP2
4422;SDS011;2224;49.814;8.650;2022-09-09T00:01:41;2.70;;;1.70;;
4422;SDS011;2224;49.814;8.650;2022-09-09T00:04:15;2.70;;;1.53;;
4422;SDS011;2224;49.814;8.650;2022-09-09T00:09:31;3.17;;;1.23;;
4422;SDS011;2224;49.814;8.650;2022-09-09T00:12:20;5.20;;;1.90;;
4422;SDS011;2224;49.814;8.650;2022-09-09T00:15:02;4.53;;;2.07;;
4422;SDS011;2224;49.814;8.650;2022-09-09T00:17:35;2.57;;;1.90;;
4422;SDS011;2224;49.814;8.650;2022-09-09T00:23:05;3.27;;;1.40;;
4422;SDS011;2224;49.814;8.650;2022-09-09T00:25:41;1.60;;;1.13;;
4422;SDS011;2224;49.814;8.650;2022-09-09T00:28:13;3.97;;;1.50;;
4422;SDS011;2224;49.814;8.650;2022-09-09T00:30:42;2.97;;;1.30;;
4422;SDS011;2224;49.814;8.650;2022-09-09T00:33:11;4.13;;;1.40;;
4422;SDS011;2224;49.814;8.650;2022-09-09T00:35:41;3.40;;;1.40;;
4422;SDS011;2224;49.814;8.650;2022-09-09T00:38:11;4.67;;;1.47;;
4422;SDS011;2224;49.814;8.650;2022-09-09T00:40:39;4.40;;;1.50;;
4422;SDS011;2224;49.814;8.650;2022-09-09T00:48:36;3.07;;;1.33;;
4422;SDS011;2224;49.814;8.650;2022-09-09T00:57:05;2.87;;;1.50;;
4422;SDS011;2224;49.814;8.650;2022-09-09T00:59:50;5.97;;;1.90;;
4422;SDS011;2224;49.814;8.650;2022-09-09T01:05:12;3.77;;;1.40;;
4422;SDS011;2224;49.814;8.650;2022-09-09T01:07:42;4.70;;;1.40;;
4422;SDS011;2224;49.814;8.650;2022-09-09T01:10:17;2.70;;;1.60;;
4422;SDS011;2224;49.814;8.650;2022-09-09T01:12:51;6.03;;;1.70;;
4422;SDS011;2224;49.814;8.650;2022-09-09T01:15:22;2.40;;;1.50;;
4422;SDS011;2224;49.814;8.650;2022-09-09T01:18:06;5.83;;;1.57;;
4422;SDS011;2224;49.814;8.650;2022-09-09T01:20:55;2.80;;;1.57;;
4422;SDS011;2224;49.814;8.650;2022-09-09T01:26:04;4.50;;;2.07;;
4422;SDS011;2224;49.814;8.650;2022-09-09T01:28:33;2.13;;;1.50;;
4422;SDS011;2224;49.814;8.650;2022-09-09T01:31:00;5.03;;;1.33;;
4422;SDS011;2224;49.814;8.650;2022-09-09T01:33:26;3.37;;;1.53;;
4422;SDS011;2224;49.814;8.650;2022-09-09T01:35:52;2.43;;;1.70;;
4422;SDS011;2224;49.814;8.650;2022-09-09T01:38:20;6.53;;;1.67;;
4422;SDS011;2224;49.814;8.650;2022-09-09T01:40:46;4.73;;;1.80;;
4422;SDS011;2224;49.814;8.650;2022-09-09T01:43:11;3.00;;;1.90;;
4422;SDS011;2224;49.814;8.650;2022-09-09T01:45:38;7.60;;;1.90;;
4422;SDS011;2224;49.814;8.650;2022-09-09T01:48:04;4.37;;;2.10;;
4422;SDS011;2224;49.814;8.650;2022-09-09T01:50:29;2.60;;;1.63;;
4422;SDS011;2224;49.814;8.650;2022-09-09T01:52:58;2.40;;;2.00;;
4422;SDS011;2224;49.814;8.650;2022-09-09T01:55:37;6.00;;;2.47;;
4422;SDS011;2224;49.814;8.650;2022-09-09T02:00:54;4.17;;;2.00;;
4422;SDS011;2224;49.814;8.650;2022-09-09T02:04:01;4.67;;;2.27;;
4422;SDS011;2224;49.814;8.650;2022-09-09T02:06:30;2.60;;;2.17;;
4422;SDS011;2224;49.814;8.650;2022-09-09T02:08:59;3.27;;;2.17;;
4422;SDS011;2224;49.814;8.650;2022-09-09T02:11:27;4.30;;;2.00;;
4422;SDS011;2224;49.814;8.650;2022-09-09T02:13:57;4.43;;;2.27;;
4422;SDS011;2224;49.814;8.650;2022-09-09T02:16:28;4.70;;;1.77;;
4422;SDS011;2224;49.814;8.650;2022-09-09T02:19:02;3.97;;;2.33;;
4422;SDS011;2224;49.814;8.650;2022-09-09T02:21:32;6.60;;;1.57;;
4422;SDS011;2224;49.814;8.650;2022-09-09T02:24:00;2.43;;;1.90;;
4422;SDS011;2224;49.814;8.650;2022-09-09T02:26:29;3.60;;;2.10;;
4422;SDS011;2224;49.814;8.650;2022-09-09T02:28:57;4.00;;;2.33;;
4422;SDS011;2224;49.814;8.650;2022-09-09T02:31:44;4.63;;;1.80;;
4422;SDS011;2224;49.814;8.650;2022-09-09T02:34:10;3.13;;;1.80;;
4422;SDS011;2224;49.814;8.650;2022-09-09T02:36:37;2.77;;;2.23;;
4422;SDS011;2224;49.814;8.650;2022-09-09T02:39:04;5.73;;;2.00;;
4422;SDS011;2224;49.814;8.650;2022-09-09T02:41:31;5.53;;;1.97;;
4422;SDS011;2224;49.814;8.650;2022-09-09T02:43:58;3.40;;;1.93;;
4422;SDS011;2224;49.814;8.650;2022-09-09T02:56:33;5.37;;;2.13;;
4422;SDS011;2224;49.814;8.650;2022-09-09T02:59:05;3.10;;;1.77;;
4422;SDS011;2224;49.814;8.650;2022-09-09T03:01:30;5.07;;;1.90;;
4422;SDS011;2224;49.814;8.650;2022-09-09T03:03:56;4.10;;;1.70;;
4422;SDS011;2224;49.814;8.650;2022-09-09T03:06:22;4.93;;;2.10;;
4422;SDS011;2224;49.814;8.650;2022-09-09T03:08:47;3.57;;;2.40;;
4422;SDS011;2224;49.814;8.650;2022-09-09T03:11:14;3.43;;;1.60;;
4422;SDS011;2224;49.814;8.650;2022-09-09T03:13:39;4.90;;;2.37;;
4422;SDS011;2224;49.814;8.650;2022-09-09T03:16:04;5.07;;;2.00;;
4422;SDS011;2224;49.814;8.650;2022-09-09T03:18:30;4.17;;;2.17;;
4422;SDS011;2224;49.814;8.650;2022-09-09T03:20:57;4.27;;;1.97;;
4422;SDS011;2224;49.814;8.650;2022-09-09T03:23:24;2.20;;;1.80;;
4422;SDS011;2224;49.814;8.650;2022-09-09T03:25:49;4.27;;;2.17;;
4422;SDS011;2224;49.814;8.650;2022-09-09T03:28:16;4.40;;;2.17;;
4422;SDS011;2224;49.814;8.650;2022-09-09T03:30:41;4.03;;;2.20;;
4422;SDS011;2224;49.814;8.650;2022-09-09T03:33:07;5.53;;;2.20;;
4422;SDS011;2224;49.814;8.650;2022-09-09T03:35:32;3.60;;;1.80;;
4422;SDS011;2224;49.814;8.650;2022-09-09T03:37:58;4.37;;;1.90;;
4422;SDS011;2224;49.814;8.650;2022-09-09T03:40:23;4.20;;;2.43;;
4422;SDS011;2224;49.814;8.650;2022-09-09T03:42:48;4.10;;;2.00;;
4422;SDS011;2224;49.814;8.650;2022-09-09T03:45:14;2.77;;;1.83;;
4422;SDS011;2224;49.814;8.650;2022-09-09T03:47:39;2.50;;;1.90;;
4422;SDS011;2224;49.814;8.650;2022-09-09T03:50:05;3.53;;;2.03;;
4422;SDS011;2224;49.814;8.650;2022-09-09T03:52:34;2.50;;;2.00;;
4422;SDS011;2224;49.814;8.650;2022-09-09T03:55:02;2.73;;;2.10;;
4422;SDS011;2224;49.814;8.650;2022-09-09T03:57:28;3.83;;;1.83;;
4422;SDS011;2224;49.814;8.650;2022-09-09T03:59:54;6.40;;;2.30;;
4422;SDS011;2224;49.814;8.650;2022-09-09T04:02:20;3.77;;;2.37;;
4422;SDS011;2224;49.814;8.650;2022-09-09T04:04:46;3.47;;;2.20;;
4422;SDS011;2224;49.814;8.650;2022-09-09T04:07:11;4.00;;;1.90;;
4422;SDS011;2224;49.814;8.650;2022-09-09T04:09:36;6.10;;;2.33;;
4422;SDS011;2224;49.814;8.650;2022-09-09T04:12:02;5.40;;;1.93;;
4422;SDS011;2224;49.814;8.650;2022-09-09T04:14:27;2.67;;;1.90;;
4422;SDS011;2224;49.814;8.650;2022-09-09T04:16:53;5.70;;;2.40;;
4422;SDS011;2224;49.814;8.650;2022-09-09T04:19:19;6.23;;;2.40;;
4422;SDS011;2224;49.814;8.650;2022-09-09T04:21:44;3.47;;;1.93;;
4422;SDS011;2224;49.814;8.650;2022-09-09T04:24:09;2.73;;;1.97;;
4422;SDS011;2224;49.814;8.650;2022-09-09T04:26:35;5.43;;;2.30;;
4422;SDS011;2224;49.814;8.650;2022-09-09T04:29:01;3.50;;;2.00;;
4422;SDS011;2224;49.814;8.650;2022-09-09T04:31:28;4.57;;;2.13;;
4422;SDS011;2224;49.814;8.650;2022-09-09T04:33:53;3.93;;;2.20;;
4422;SDS011;2224;49.814;8.650;2022-09-09T04:36:18;3.00;;;2.00;;
4422;SDS011;2224;49.814;8.650;2022-09-09T04:38:44;2.20;;;2.00;;
4422;SDS011;2224;49.814;8.650;2022-09-09T04:41:10;2.97;;;2.40;;
4422;SDS011;2224;49.814;8.650;2022-09-09T04:43:36;4.10;;;1.80;;
4422;SDS011;2224;49.814;8.650;2022-09-09T04:46:02;6.90;;;1.90;;
4422;SDS011;2224;49.814;8.650;2022-09-09T04:48:27;4.90;;;2.00;;
4422;SDS011;2224;49.814;8.650;2022-09-09T04:50:56;3.43;;;1.60;;
4422;SDS011;2224;49.814;8.650;2022-09-09T04:53:26;4.83;;;1.90;;
4422;SDS011;2224;49.814;8.650;2022-09-09T04:56:00;3.60;;;1.60;;
4422;SDS011;2224;49.814;8.650;2022-09-09T04:58:26;2.97;;;1.67;;
4422;SDS011;2224;49.814;8.650;2022-09-09T05:00:51;3.63;;;2.43;;
4422;SDS011;2224;49.814;8.650;2022-09-09T05:03:17;4.83;;;1.90;;
4422;SDS011;2224;49.814;8.650;2022-09-09T05:05:42;4.13;;;1.70;;
4422;SDS011;2224;49.814;8.650;2022-09-09T05:08:08;3.90;;;1.60;;
4422;SDS011;2224;49.814;8.650;2022-09-09T05:10:35;6.07;;;1.70;;
4422;SDS011;2224;49.814;8.650;2022-09-09T05:13:02;4.20;;;2.10;;
4422;SDS011;2224;49.814;8.650;2022-09-09T05:15:27;3.00;;;1.83;;
4422;SDS011;2224;49.814;8.650;2022-09-09T05:17:56;2.40;;;1.40;;
4422;SDS011;2224;49.814;8.650;2022-09-09T05:20:25;3.60;;;1.50;;
4422;SDS011;2224;49.814;8.650;2022-09-09T05:22:52;2.73;;;1.30;;
4422;SDS011;2224;49.814;8.650;2022-09-09T05:25:19;4.27;;;1.90;;
4422;SDS011;2224;49.814;8.650;2022-09-09T05:27:44;3.90;;;1.67;;
4422;SDS011;2224;49.814;8.650;2022-09-09T05:30:10;2.80;;;1.50;;
4422;SDS011;2224;49.814;8.650;2022-09-09T05:32:35;3.47;;;1.53;;
4422;SDS011;2224;49.814;8.650;2022-09-09T05:35:01;5.93;;;1.63;;
4422;SDS011;2224;49.814;8.650;2022-09-09T05:37:26;7.13;;;1.93;;
4422;SDS011;2224;49.814;8.650;2022-09-09T05:39:51;3.23;;;1.60;;
4422;SDS011;2224;49.814;8.650;2022-09-09T05:42:18;2.93;;;1.93;;
4422;SDS011;2224;49.814;8.650;2022-09-09T05:44:43;5.73;;;1.67;;
4422;SDS011;2224;49.814;8.650;2022-09-09T05:47:09;3.43;;;1.43;;
4422;SDS011;2224;49.814;8.650;2022-09-09T05:49:35;5.70;;;1.40;;
4422;SDS011;2224;49.814;8.650;2022-09-09T05:52:00;5.83;;;1.70;;
4422;SDS011;2224;49.814;8.650;2022-09-09T05:54:26;2.10;;;1.50;;
4422;SDS011;2224;49.814;8.650;2022-09-09T05:56:51;3.30;;;1.70;;
4422;SDS011;2224;49.814;8.650;2022-09-09T05:59:18;3.30;;;1.60;;
4422;SDS011;2224;49.814;8.650;2022-09-09T06:01:44;2.47;;;1.40;;
4422;SDS011;2224;49.814;8.650;2022-09-09T06:04:10;2.00;;;1.20;;
4422;SDS011;2224;49.814;8.650;2022-09-09T06:06:36;4.30;;;1.67;;
4422;SDS011;2224;49.814;8.650;2022-09-09T06:09:02;2.57;;;1.40;;
4422;SDS011;2224;49.814;8.650;2022-09-09T06:11:31;5.20;;;1.53;;
4422;SDS011;2224;49.814;8.650;2022-09-09T06:13:57;3.63;;;1.97;;
4422;SDS011;2224;49.814;8.650;2022-09-09T06:16:24;3.00;;;1.50;;
4422;SDS011;2224;49.814;8.650;2022-09-09T06:18:51;1.67;;;1.33;;
4422;SDS011;2224;49.814;8.650;2022-09-09T06:21:19;6.20;;;2.10;;
4422;SDS011;2224;49.814;8.650;2022-09-09T06:23:55;2.97;;;1.33;;
4422;SDS011;2224;49.814;8.650;2022-09-09T06:26:21;1.77;;;1.40;;
4422;SDS011;2224;49.814;8.650;2022-09-09T06:28:48;2.23;;;1.40;;
4422;SDS011;2224;49.814;8.650;2022-09-09T06:31:15;4.33;;;1.20;;
4422;SDS011;2224;49.814;8.650;2022-09-09T06:33:48;4.80;;;1.40;;
4422;SDS011;2224;49.814;8.650;2022-09-09T06:36:16;2.83;;;1.60;;
4422;SDS011;2224;49.814;8.650;2022-09-09T06:38:45;3.67;;;1.77;;
4422;SDS011;2224;49.814;8.650;2022-09-09T06:41:12;3.23;;;1.50;;
4422;SDS011;2224;49.814;8.650;2022-09-09T06:43:38;2.37;;;1.40;;
4422;SDS011;2224;49.814;8.650;2022-09-09T06:46:09;2.83;;;1.70;;
4422;SDS011;2224;49.814;8.650;2022-09-09T06:48:36;1.73;;;1.30;;
4422;SDS011;2224;49.814;8.650;2022-09-09T06:53:27;1.80;;;1.60;;
4422;SDS011;2224;49.814;8.650;2022-09-09T06:55:52;2.83;;;1.50;;
4422;SDS011;2224;49.814;8.650;2022-09-09T06:58:18;3.73;;;2.07;;
4422;SDS011;2224;49.814;8.650;2022-09-09T07:00:43;3.73;;;1.83;;
4422;SDS011;2224;49.814;8.650;2022-09-09T07:03:09;5.47;;;1.70;;
4422;SDS011;2224;49.814;8.650;2022-09-09T07:05:35;3.20;;;2.00;;
4422;SDS011;2224;49.814;8.650;2022-09-09T07:08:00;2.60;;;1.70;;
4422;SDS011;2224;49.814;8.650;2022-09-09T07:10:27;1.93;;;1.57;;
4422;SDS011;2224;49.814;8.650;2022-09-09T07:12:52;5.30;;;1.77;;
4422;SDS011;2224;49.814;8.650;2022-09-09T07:15:18;2.20;;;1.50;;
4422;SDS011;2224;49.814;8.650;2022-09-09T07:17:43;4.93;;;1.90;;
4422;SDS011;2224;49.814;8.650;2022-09-09T07:20:09;2.47;;;1.83;;
4422;SDS011;2224;49.814;8.650;2022-09-09T07:22:34;6.43;;;1.80;;
4422;SDS011;2224;49.814;8.650;2022-09-09T07:24:59;4.20;;;2.00;;
4422;SDS011;2224;49.814;8.650;2022-09-09T07:27:25;6.57;;;1.87;;
4422;SDS011;2224;49.814;8.650;2022-09-09T07:29:50;2.20;;;1.83;;
4422;SDS011;2224;49.814;8.650;2022-09-09T07:32:16;3.50;;;1.60;;
4422;SDS011;2224;49.814;8.650;2022-09-09T07:34:42;3.57;;;1.97;;
4422;SDS011;2224;49.814;8.650;2022-09-09T07:37:07;2.90;;;1.50;;
4422;SDS011;2224;49.814;8.650;2022-09-09T07:39:36;2.43;;;1.87;;
4422;SDS011;2224;49.814;8.650;2022-09-09T07:42:01;5.30;;;2.00;;
4422;SDS011;2224;49.814;8.650;2022-09-09T07:44:27;8.43;;;1.87;;
4422;SDS011;2224;49.814;8.650;2022-09-09T07:46:52;3.50;;;1.70;;
4422;SDS011;2224;49.814;8.650;2022-09-09T07:49:18;5.63;;;2.27;;
4422;SDS011;2224;49.814;8.650;2022-09-09T07:51:45;3.00;;;1.80;;
4422;SDS011;2224;49.814;8.650;2022-09-09T07:54:12;7.13;;;1.90;;
4422;SDS011;2224;49.814;8.650;2022-09-09T07:56:39;2.20;;;1.50;;
4422;SDS011;2224;49.814;8.650;2022-09-09T07:59:05;5.87;;;2.40;;
4422;SDS011;2224;49.814;8.650;2022-09-09T08:03:58;4.80;;;2.20;;
4422;SDS011;2224;49.814;8.650;2022-09-09T08:06:29;8.17;;;3.50;;
4422;SDS011;2224;49.814;8.650;2022-09-09T08:08:58;5.10;;;1.80;;
4422;SDS011;2224;49.814;8.650;2022-09-09T08:11:24;5.03;;;1.73;;
4422;SDS011;2224;49.814;8.650;2022-09-09T08:13:51;5.10;;;1.80;;
4422;SDS011;2224;49.814;8.650;2022-09-09T08:16:17;4.83;;;2.57;;
4422;SDS011;2224;49.814;8.650;2022-09-09T08:18:50;5.03;;;1.83;;
4422;SDS011;2224;49.814;8.650;2022-09-09T08:21:17;6.20;;;1.97;;
4422;SDS011;2224;49.814;8.650;2022-09-09T08:23:45;3.37;;;2.27;;
4422;SDS011;2224;49.814;8.650;2022-09-09T08:26:13;5.77;;;2.17;;
4422;SDS011;2224;49.814;8.650;2022-09-09T08:28:39;2.57;;;1.90;;
4422;SDS011;2224;49.814;8.650;2022-09-09T08:31:08;2.80;;;2.03;;
4422;SDS011;2224;49.814;8.650;2022-09-09T08:33:35;6.90;;;2.13;;
4422;SDS011;2224;49.814;8.650;2022-09-09T08:36:03;6.87;;;2.40;;
4422;SDS011;2224;49.814;8.650;2022-09-09T08:38:29;3.43;;;2.33;;
4422;SDS011;2224;49.814;8.650;2022-09-09T08:40:54;5.23;;;2.30;;
4422;SDS011;2224;49.814;8.650;2022-09-09T08:43:26;4.03;;;1.90;;
4422;SDS011;2224;49.814;8.650;2022-09-09T08:45:58;5.17;;;2.20;;
4422;SDS011;2224;49.814;8.650;2022-09-09T08:48:38;7.03;;;2.20;;
4422;SDS011;2224;49.814;8.650;2022-09-09T08:51:08;3.70;;;1.93;;
4422;SDS011;2224;49.814;8.650;2022-09-09T08:53:37;5.03;;;1.80;;
4422;SDS011;2224;49.814;8.650;2022-09-09T08:56:08;9.93;;;2.67;;
4422;SDS011;2224;49.814;8.650;2022-09-09T08:58:38;4.10;;;1.93;;
4422;SDS011;2224;49.814;8.650;2022-09-09T09:11:37;3.67;;;2.03;;
4422;SDS011;2224;49.814;8.650;2022-09-09T09:14:09;6.10;;;2.20;;
4422;SDS011;2224;49.814;8.650;2022-09-09T09:16:45;6.93;;;2.70;;
4422;SDS011;2224;49.814;8.650;2022-09-09T09:19:28;6.07;;;2.33;;
4422;SDS011;2224;49.814;8.650;2022-09-09T09:27:10;6.03;;;2.70;;
4422;SDS011;2224;49.814;8.650;2022-09-09T09:29:38;10.53;;;2.67;;
4422;SDS011;2224;49.814;8.650;2022-09-09T09:32:05;7.07;;;3.00;;
4422;SDS011;2224;49.814;8.650;2022-09-09T09:34:32;4.97;;;2.53;;
4422;SDS011;2224;49.814;8.650;2022-09-09T09:36:58;5.03;;;2.10;;
4422;SDS011;2224;49.814;8.650;2022-09-09T09:39:33;9.70;;;2.20;;
4422;SDS011;2224;49.814;8.650;2022-09-09T09:42:08;9.87;;;2.00;;
4422;SDS011;2224;49.814;8.650;2022-09-09T09:44:35;5.53;;;2.30;;
4422;SDS011;2224;49.814;8.650;2022-09-09T09:47:10;8.43;;;1.77;;
4422;SDS011;2224;49.814;8.650;2022-09-09T09:49:37;4.83;;;1.77;;
4422;SDS011;2224;49.814;8.650;2022-09-09T09:52:03;6.60;;;2.50;;
4422;SDS011;2224;49.814;8.650;2022-09-09T09:54:38;6.97;;;1.77;;
4422;SDS011;2224;49.814;8.650;2022-09-09T09:57:08;9.23;;;2.37;;
4422;SDS011;2224;49.814;8.650;2022-09-09T09:59:35;4.67;;;1.93;;
4422;SDS011;2224;49.814;8.650;2022-09-09T10:02:18;3.23;;;1.57;;
4422;SDS011;2224;49.814;8.650;2022-09-09T10:04:45;7.23;;;1.90;;
4422;SDS011;2224;49.814;8.650;2022-09-09T10:07:11;3.33;;;1.23;;
4422;SDS011;2224;49.814;8.650;2022-09-09T10:09:37;4.30;;;1.90;;
4422;SDS011;2224;49.814;8.650;2022-09-09T10:15:02;5.13;;;1.40;;
4422;SDS011;2224;49.814;8.650;2022-09-09T10:17:38;3.80;;;1.60;;
4422;SDS011;2224;49.814;8.650;2022-09-09T10:23:18;3.77;;;1.67;;
4422;SDS011;2224;49.814;8.650;2022-09-09T10:26:12;4.30;;;1.60;;
4422;SDS011;2224;49.814;8.650;2022-09-09T10:28:55;3.73;;;1.70;;
4422;SDS011;2224;49.814;8.650;2022-09-09T10:37:08;6.53;;;2.23;;
4422;SDS011;2224;49.814;8.650;2022-09-09T10:39:53;11.40;;;3.33;;
4422;SDS011;2224;49.814;8.650;2022-09-09T10:42:44;8.37;;;2.93;;
4422;SDS011;2224;49.814;8.650;2022-09-09T10:45:28;9.73;;;4.83;;
4422;SDS011;2224;49.814;8.650;2022-09-09T10:48:19;13.47;;;4.00;;
4422;SDS011;2224;49.814;8.650;2022-09-09T10:51:02;6.50;;;2.97;;
4422;SDS011;2224;49.814;8.650;2022-09-09T10:53:35;5.73;;;2.40;;
4422;SDS011;2224;49.814;8.650;2022-09-09T10:56:13;7.23;;;3.00;;
4422;SDS011;2224;49.814;8.650;2022-09-09T10:58:42;10.90;;;3.63;;
4422;SDS011;2224;49.814;8.650;2022-09-09T11:01:24;7.93;;;3.13;;
4422;SDS011;2224;49.814;8.650;2022-09-09T11:03:57;1.90;;;1.70;;
4422;SDS011;2224;49.814;8.650;2022-09-09T11:06:32;2.23;;;1.70;;
4422;SDS011;2224;49.814;8.650;2022-09-09T11:09:01;5.57;;;2.50;;
4422;SDS011;2224;49.814;8.650;2022-09-09T11:11:39;7.40;;;3.40;;
4422;SDS011;2224;49.814;8.650;2022-09-09T11:16:52;6.60;;;3.20;;
4422;SDS011;2224;49.814;8.650;2022-09-09T11:20:02;4.70;;;3.20;;
4422;SDS011;2224;49.814;8.650;2022-09-09T11:27:51;4.57;;;3.10;;
4422;SDS011;2224;49.814;8.650;2022-09-09T11:30:21;13.90;;;3.50;;
4422;SDS011;2224;49.814;8.650;2022-09-09T11:41:04;5.47;;;2.67;;
4422;SDS011;2224;49.814;8.650;2022-09-09T11:43:53;6.40;;;2.93;;
4422;SDS011;2224;49.814;8.650;2022-09-09T11:46:21;9.60;;;2.67;;
4422;SDS011;2224;49.814;8.650;2022-09-09T11:49:00;7.60;;;2.70;;
4422;SDS011;2224;49.814;8.650;2022-09-09T11:51:28;4.13;;;2.80;;
4422;SDS011;2224;49.814;8.650;2022-09-09T11:53:58;6.70;;;2.40;;
4422;SDS011;2224;49.814;8.650;2022-09-09T11:59:00;6.50;;;2.80;;
4422;SDS011;2224;49.814;8.650;2022-09-09T12:01:29;5.27;;;2.10;;
4422;SDS011;2224;49.814;8.650;2022-09-09T12:04:09;3.30;;;2.10;;
4422;SDS011;2224;49.814;8.650;2022-09-09T12:06:52;4.47;;;2.10;;
4422;SDS011;2224;49.814;8.650;2022-09-09T12:11:48;6.00;;;2.50;;
4422;SDS011;2224;49.814;8.650;2022-09-09T12:14:34;6.10;;;1.97;;
4422;SDS011;2224;49.814;8.650;2022-09-09T12:17:17;4.53;;;2.00;;
4422;SDS011;2224;49.814;8.650;2022-09-09T12:19:45;3.87;;;2.33;;
4422;SDS011;2224;49.814;8.650;2022-09-09T12:24:54;5.03;;;2.10;;
4422;SDS011;2224;49.814;8.650;2022-09-09T12:27:26;6.60;;;2.03;;
4422;SDS011;2224;49.814;8.650;2022-09-09T12:30:10;5.83;;;2.27;;
4422;SDS011;2224;49.814;8.650;2022-09-09T12:32:36;5.47;;;2.30;;
4422;SDS011;2224;49.814;8.650;2022-09-09T12:35:03;4.43;;;2.20;;
4422;SDS011;2224;49.814;8.650;2022-09-09T12:40:23;4.73;;;1.80;;
4422;SDS011;2224;49.814;8.650;2022-09-09T12:42:50;4.87;;;1.90;;
4422;SDS011;2224;49.814;8.650;2022-09-09T12:45:16;3.17;;;1.53;;
4422;SDS011;2224;49.814;8.650;2022-09-09T12:50:35;3.10;;;1.30;;
4422;SDS011;2224;49.814;8.650;2022-09-09T12:53:24;3.47;;;1.40;;
4422;SDS011;2224;49.814;8.650;2022-09-09T12:55:53;3.40;;;1.33;;
4422;SDS011;2224;49.814;8.650;2022-09-09T12:58:19;3.73;;;1.40;;
4422;SDS011;2224;49.814;8.650;2022-09-09T13:00:49;3.90;;;1.13;;
4422;SDS011;2224;49.814;8.650;2022-09-09T13:03:17;1.83;;;0.97;;
4422;SDS011;2224;49.814;8.650;2022-09-09T13:05:43;2.17;;;0.90;;
4422;SDS011;2224;49.814;8.650;2022-09-09T13:08:12;3.97;;;1.33;;
4422;SDS011;2224;49.814;8.650;2022-09-09T13:13:04;3.60;;;1.00;;
4422;SDS011;2224;49.814;8.650;2022-09-09T13:15:30;2.97;;;1.23;;
4422;SDS011;2224;49.814;8.650;2022-09-09T13:17:56;3.47;;;1.37;;
4422;SDS011;2224;49.814;8.650;2022-09-09T13:20:22;1.83;;;1.00;;
4422;SDS011;2224;49.814;8.650;2022-09-09T13:22:49;3.27;;;1.10;;
4422;SDS011;2224;49.814;8.650;2022-09-09T13:25:27;1.73;;;0.93;;
4422;SDS011;2224;49.814;8.650;2022-09-09T13:30:35;1.97;;;1.00;;
4422;SDS011;2224;49.814;8.650;2022-09-09T13:35:34;1.30;;;0.50;;
4422;SDS011;2224;49.814;8.650;2022-09-09T13:38:06;1.30;;;0.60;;
4422;SDS011;2224;49.814;8.650;2022-09-09T13:40:33;1.37;;;0.77;;
4422;SDS011;2224;49.814;8.650;2022-09-09T13:42:59;1.27;;;0.73;;
4422;SDS011;2224;49.814;8.650;2022-09-09T13:45:25;1.30;;;0.60;;
4422;SDS011;2224;49.814;8.650;2022-09-09T13:47:51;2.17;;;0.80;;
4422;SDS011;2224;49.814;8.650;2022-09-09T13:52:53;4.30;;;0.90;;
4422;SDS011;2224;49.814;8.650;2022-09-09T13:55:20;4.63;;;1.43;;
4422;SDS011;2224;49.814;8.650;2022-09-09T13:57:50;2.40;;;0.90;;
4422;SDS011;2224;49.814;8.650;2022-09-09T14:00:20;1.80;;;1.20;;
4422;SDS011;2224;49.814;8.650;2022-09-09T14:02:46;3.67;;;0.90;;
4422;SDS011;2224;49.814;8.650;2022-09-09T14:05:12;1.50;;;1.17;;
4422;SDS011;2224;49.814;8.650;2022-09-09T14:07:38;5.23;;;1.20;;
4422;SDS011;2224;49.814;8.650;2022-09-09T14:10:05;2.43;;;1.10;;
4422;SDS011;2224;49.814;8.650;2022-09-09T14:12:31;3.07;;;1.23;;
4422;SDS011;2224;49.814;8.650;2022-09-09T14:14:56;3.00;;;1.63;;
4422;SDS011;2224;49.814;8.650;2022-09-09T14:17:22;3.00;;;1.27;;
4422;SDS011;2224;49.814;8.650;2022-09-09T14:19:49;2.87;;;1.10;;
4422;SDS011;2224;49.814;8.650;2022-09-09T14:22:15;2.80;;;1.07;;
4422;SDS011;2224;49.814;8.650;2022-09-09T14:24:40;1.20;;;1.00;;
4422;SDS011;2224;49.814;8.650;2022-09-09T14:27:06;1.20;;;0.97;;
4422;SDS011;2224;49.814;8.650;2022-09-09T14:29:31;2.07;;;1.20;;
4422;SDS011;2224;49.814;8.650;2022-09-09T14:31:57;1.70;;;1.20;;
4422;SDS011;2224;49.814;8.650;2022-09-09T14:34:25;2.10;;;1.13;;
4422;SDS011;2224;49.814;8.650;2022-09-09T14:36:51;2.00;;;1.33;;
4422;SDS011;2224;49.814;8.650;2022-09-09T14:39:16;3.40;;;2.00;;
4422;SDS011;2224;49.814;8.650;2022-09-09T14:41:41;1.90;;;1.07;;
4422;SDS011;2224;49.814;8.650;2022-09-09T14:44:07;2.93;;;1.40;;
4422;SDS011;2224;49.814;8.650;2022-09-09T14:46:33;1.97;;;1.20;;
4422;SDS011;2224;49.814;8.650;2022-09-09T14:48:58;4.77;;;1.27;;
4422;SDS011;2224;49.814;8.650;2022-09-09T14:51:24;3.00;;;1.73;;
4422;SDS011;2224;49.814;8.650;2022-09-09T14:53:52;2.50;;;1.00;;
4422;SDS011;2224;49.814;8.650;2022-09-09T14:56:19;2.17;;;1.10;;
4422;SDS011;2224;49.814;8.650;2022-09-09T14:58:47;2.30;;;1.03;;
4422;SDS011;2224;49.814;8.650;2022-09-09T15:01:14;3.20;;;1.30;;
4422;SDS011;2224;49.814;8.650;2022-09-09T15:03:41;2.33;;;0.90;;
4422;SDS011;2224;49.814;8.650;2022-09-09T15:06:12;2.60;;;1.00;;
4422;SDS011;2224;49.814;8.650;2022-09-09T15:08:39;3.13;;;0.80;;
4422;SDS011;2224;49.814;8.650;2022-09-09T15:11:06;4.63;;;1.30;;
4422;SDS011;2224;49.814;8.650;2022-09-09T15:13:32;1.03;;;0.87;;
4422;SDS011;2224;49.814;8.650;2022-09-09T15:16:05;1.70;;;0.80;;
4422;SDS011;2224;49.814;8.650;2022-09-09T15:18:38;1.60;;;1.17;;
4422;SDS011;2224;49.814;8.650;2022-09-09T15:21:11;2.27;;;0.93;;
4422;SDS011;2224;49.814;8.650;2022-09-09T15:23:40;2.97;;;0.97;;
4422;SDS011;2224;49.814;8.650;2022-09-09T15:26:06;4.97;;;1.17;;
4422;SDS011;2224;49.814;8.650;2022-09-09T15:28:32;2.53;;;1.10;;
4422;SDS011;2224;49.814;8.650;2022-09-09T15:31:06;2.53;;;1.03;;
4422;SDS011;2224;49.814;8.650;2022-09-09T15:33:34;2.93;;;1.13;;
4422;SDS011;2224;49.814;8.650;2022-09-09T15:36:11;2.80;;;0.90;;
4422;SDS011;2224;49.814;8.650;2022-09-09T15:38:44;1.60;;;1.50;;
4422;SDS011;2224;49.814;8.650;2022-09-09T15:41:10;5.70;;;1.30;;
4422;SDS011;2224;49.814;8.650;2022-09-09T15:43:36;2.53;;;1.53;;
4422;SDS011;2224;49.814;8.650;2022-09-09T15:46:09;2.37;;;1.37;;
4422;SDS011;2224;49.814;8.650;2022-09-09T15:49:02;3.00;;;1.50;;
4422;SDS011;2224;49.814;8.650;2022-09-09T15:51:31;2.50;;;1.20;;
4422;SDS011;2224;49.814;8.650;2022-09-09T15:53:58;3.90;;;1.37;;
4422;SDS011;2224;49.814;8.650;2022-09-09T15:56:24;3.13;;;1.53;;
4422;SDS011;2224;49.814;8.650;2022-09-09T15:58:50;4.50;;;1.40;;
4422;SDS011;2224;49.814;8.650;2022-09-09T16:01:17;3.37;;;1.43;;
4422;SDS011;2224;49.814;8.650;2022-09-09T16:03:44;3.13;;;1.27;;
4422;SDS011;2224;49.814;8.650;2022-09-09T16:06:14;2.63;;;1.80;;
4422;SDS011;2224;49.814;8.650;2022-09-09T16:08:42;4.20;;;1.30;;
4422;SDS011;2224;49.814;8.650;2022-09-09T16:11:15;2.20;;;1.30;;
4422;SDS011;2224;49.814;8.650;2022-09-09T16:13:46;3.13;;;1.00;;
4422;SDS011;2224;49.814;8.650;2022-09-09T16:16:13;1.47;;;0.70;;
4422;SDS011;2224;49.814;8.650;2022-09-09T16:18:41;1.70;;;0.70;;
4422;SDS011;2224;49.814;8.650;2022-09-09T16:21:21;1.10;;;0.90;;
4422;SDS011;2224;49.814;8.650;2022-09-09T16:23:47;1.43;;;1.00;;
4422;SDS011;2224;49.814;8.650;2022-09-09T16:26:14;1.63;;;1.00;;
4422;SDS011;2224;49.814;8.650;2022-09-09T16:28:40;3.50;;;1.00;;
4422;SDS011;2224;49.814;8.650;2022-09-09T16:31:06;4.20;;;1.07;;
4422;SDS011;2224;49.814;8.650;2022-09-09T16:33:32;2.50;;;0.93;;
4422;SDS011;2224;49.814;8.650;2022-09-09T16:35:58;2.73;;;1.00;;
4422;SDS011;2224;49.814;8.650;2022-09-09T16:38:24;2.97;;;1.10;;
4422;SDS011;2224;49.814;8.650;2022-09-09T16:40:50;3.53;;;1.20;;
4422;SDS011;2224;49.814;8.650;2022-09-09T16:43:15;1.60;;;0.90;;
4422;SDS011;2224;49.814;8.650;2022-09-09T16:45:41;2.93;;;1.00;;
4422;SDS011;2224;49.814;8.650;2022-09-09T16:48:08;2.47;;;1.07;;
4422;SDS011;2224;49.814;8.650;2022-09-09T16:50:33;2.17;;;1.07;;
4422;SDS011;2224;49.814;8.650;2022-09-09T16:52:59;1.60;;;0.90;;
4422;SDS011;2224;49.814;8.650;2022-09-09T16:55:24;2.20;;;1.17;;
4422;SDS011;2224;49.814;8.650;2022-09-09T16:57:51;2.60;;;1.10;;
4422;SDS011;2224;49.814;8.650;2022-09-09T17:00:16;3.10;;;1.50;;
4422;SDS011;2224;49.814;8.650;2022-09-09T17:02:42;1.63;;;1.17;;
4422;SDS011;2224;49.814;8.650;2022-09-09T17:05:08;2.50;;;0.90;;
4422;SDS011;2224;49.814;8.650;2022-09-09T17:07:34;1.73;;;0.93;;
4422;SDS011;2224;49.814;8.650;2022-09-09T17:10:00;2.90;;;1.67;;
4422;SDS011;2224;49.814;8.650;2022-09-09T17:12:26;1.80;;;1.20;;
4422;SDS011;2224;49.814;8.650;2022-09-09T17:14:51;3.57;;;1.70;;